sensor_id;sensor_type;location;lat;lon;timestamp;temperature;humidity
13310;DHT22;6723;48.256;16.402;2023-12-20T00:01:39;1.30;99.90
13310;DHT22;6723;48.256;16.402;2023-12-20T00:04:06;1.30;99.90
13310;DHT22;6723;48.256;16.402;2023-12-20T00:06:32;1.20;99.90
13310;DHT22;6723;48.256;16.402;2023-12-20T00:08:58;1.20;99.90
13310;DHT22;6723;48.256;16.402;2023-12-20T00:11:24;1.10;99.90
13310;DHT22;6723;48.256;16.402;2023-12-20T00:13:50;1.10;99.90
13310;DHT22;6723;48.256;16.402;2023-12-20T00:16:16;1.00;99.90
13310;DHT22;6723;48.256;16.402;2023-12-20T00:18:42;1.00;99.90
13310;DHT22;6723;48.256;16.402;2023-12-20T00:21:08;0.90;99.90
13310;DHT22;6723;48.256;16.402;2023-12-20T00:23:34;0.80;99.90
13310;DHT22;6723;48.256;16.402;2023-12-20T00:25:59;0.70;99.90
13310;DHT22;6723;48.256;16.402;2023-12-20T00:28:25;0.70;99.90
13310;DHT22;6723;48.256;16.402;2023-12-20T00:30:51;0.60;99.90
13310;DHT22;6723;48.256;16.402;2023-12-20T00:33:17;0.60;99.90
13310;DHT22;6723;48.256;16.402;2023-12-20T00:35:43;0.60;99.90
13310;DHT22;6723;48.256;16.402;2023-12-20T00:38:09;0.50;99.90
13310;DHT22;6723;48.256;16.402;2023-12-20T00:40:35;0.40;99.90
13310;DHT22;6723;48.256;16.402;2023-12-20T00:43:01;0.40;99.90
13310;DHT22;6723;48.256;16.402;2023-12-20T00:45:27;0.30;99.90
13310;DHT22;6723;48.256;16.402;2023-12-20T00:47:53;0.20;99.90
13310;DHT22;6723;48.256;16.402;2023-12-20T00:50:18;0.10;99.90
13310;DHT22;6723;48.256;16.402;2023-12-20T00:52:44;0.10;99.90
13310;DHT22;6723;48.256;16.402;2023-12-20T00:55:11;0.10;99.90
13310;DHT22;6723;48.256;16.402;2023-12-20T00:57:37;0.00;99.90
13310;DHT22;6723;48.256;16.402;2023-12-20T01:00:04;0.10;99.90
13310;DHT22;6723;48.256;16.402;2023-12-20T01:02:30;0.20;99.90
13310;DHT22;6723;48.256;16.402;2023-12-20T01:04:55;0.10;99.90
13310;DHT22;6723;48.256;16.402;2023-12-20T01:07:21;0.10;99.90
13310;DHT22;6723;48.256;16.402;2023-12-20T01:09:47;0.00;99.90
13310;DHT22;6723;48.256;16.402;2023-12-20T01:12:13;-0.10;99.90
13310;DHT22;6723;48.256;16.402;2023-12-20T01:14:39;0.00;99.90
13310;DHT22;6723;48.256;16.402;2023-12-20T01:17:05;-0.10;99.90
13310;DHT22;6723;48.256;16.402;2023-12-20T01:19:31;-0.20;99.90
13310;DHT22;6723;48.256;16.402;2023-12-20T01:21:57;-0.20;99.90
13310;DHT22;6723;48.256;16.402;2023-12-20T01:24:22;-0.20;99.90
13310;DHT22;6723;48.256;16.402;2023-12-20T01:26:48;-0.30;99.90
13310;DHT22;6723;48.256;16.402;2023-12-20T01:29:14;-0.30;99.90
13310;DHT22;6723;48.256;16.402;2023-12-20T01:31:41;-0.30;99.90
13310;DHT22;6723;48.256;16.402;2023-12-20T01:34:07;-0.30;99.90
13310;DHT22;6723;48.256;16.402;2023-12-20T01:36:33;-0.30;99.90
13310;DHT22;6723;48.256;16.402;2023-12-20T01:38:59;-0.20;99.90
13310;DHT22;6723;48.256;16.402;2023-12-20T01:41:25;-0.20;99.90
13310;DHT22;6723;48.256;16.402;2023-12-20T01:43:51;-0.20;99.90
13310;DHT22;6723;48.256;16.402;2023-12-20T01:46:20;-0.20;99.90
13310;DHT22;6723;48.256;16.402;2023-12-20T01:48:48;-0.20;99.90
13310;DHT22;6723;48.256;16.402;2023-12-20T01:51:14;-0.10;99.90
13310;DHT22;6723;48.256;16.402;2023-12-20T01:53:41;-0.10;99.90
13310;DHT22;6723;48.256;16.402;2023-12-20T01:56:10;-0.10;99.90
13310;DHT22;6723;48.256;16.402;2023-12-20T01:58:44;-0.10;99.90
13310;DHT22;6723;48.256;16.402;2023-12-20T02:01:12;-0.10;99.90
13310;DHT22;6723;48.256;16.402;2023-12-20T02:03:41;-0.10;99.90
13310;DHT22;6723;48.256;16.402;2023-12-20T02:06:07;0.00;99.90
13310;DHT22;6723;48.256;16.402;2023-12-20T02:08:34;0.00;99.90
13310;DHT22;6723;48.256;16.402;2023-12-20T02:11:00;0.00;99.90
13310;DHT22;6723;48.256;16.402;2023-12-20T02:13:27;0.10;99.90
13310;DHT22;6723;48.256;16.402;2023-12-20T02:15:54;0.00;99.90
13310;DHT22;6723;48.256;16.402;2023-12-20T02:18:20;0.00;99.90
13310;DHT22;6723;48.256;16.402;2023-12-20T02:20:46;-0.10;99.90
13310;DHT22;6723;48.256;16.402;2023-12-20T02:23:12;-0.10;99.90
13310;DHT22;6723;48.256;16.402;2023-12-20T02:25:38;-0.20;99.90
13310;DHT22;6723;48.256;16.402;2023-12-20T02:28:05;-0.10;99.90
13310;DHT22;6723;48.256;16.402;2023-12-20T02:30:34;-0.30;99.90
13310;DHT22;6723;48.256;16.402;2023-12-20T02:33:01;-0.20;99.90
13310;DHT22;6723;48.256;16.402;2023-12-20T02:35:29;-0.30;99.90
13310;DHT22;6723;48.256;16.402;2023-12-20T02:37:55;-0.20;99.90
13310;DHT22;6723;48.256;16.402;2023-12-20T02:40:20;-0.30;99.90
13310;DHT22;6723;48.256;16.402;2023-12-20T02:42:46;-0.40;99.90
13310;DHT22;6723;48.256;16.402;2023-12-20T02:45:12;-0.40;99.90
13310;DHT22;6723;48.256;16.402;2023-12-20T02:47:38;-0.30;99.90
13310;DHT22;6723;48.256;16.402;2023-12-20T02:50:04;-0.30;99.90
13310;DHT22;6723;48.256;16.402;2023-12-20T02:52:30;-0.40;99.90
13310;DHT22;6723;48.256;16.402;2023-12-20T02:54:55;-0.40;99.90
13310;DHT22;6723;48.256;16.402;2023-12-20T02:57:21;-0.40;99.90
13310;DHT22;6723;48.256;16.402;2023-12-20T02:59:47;-0.40;99.90
13310;DHT22;6723;48.256;16.402;2023-12-20T03:02:13;-0.40;99.90
13310;DHT22;6723;48.256;16.402;2023-12-20T03:04:39;-0.40;99.90
13310;DHT22;6723;48.256;16.402;2023-12-20T03:07:05;-0.40;99.90
13310;DHT22;6723;48.256;16.402;2023-12-20T03:09:31;-0.40;99.90
13310;DHT22;6723;48.256;16.402;2023-12-20T03:11:57;-0.40;99.90
13310;DHT22;6723;48.256;16.402;2023-12-20T03:14:23;-0.50;99.90
13310;DHT22;6723;48.256;16.402;2023-12-20T03:16:52;-0.50;99.90
13310;DHT22;6723;48.256;16.402;2023-12-20T03:19:18;-0.50;99.90
13310;DHT22;6723;48.256;16.402;2023-12-20T03:21:45;-0.50;99.90
13310;DHT22;6723;48.256;16.402;2023-12-20T03:24:11;-0.50;99.90
13310;DHT22;6723;48.256;16.402;2023-12-20T03:26:37;-0.50;99.90
13310;DHT22;6723;48.256;16.402;2023-12-20T03:29:02;-0.50;99.90
13310;DHT22;6723;48.256;16.402;2023-12-20T03:31:28;-0.50;99.90
13310;DHT22;6723;48.256;16.402;2023-12-20T03:33:54;-0.50;99.90
13310;DHT22;6723;48.256;16.402;2023-12-20T03:36:20;-0.60;99.90
13310;DHT22;6723;48.256;16.402;2023-12-20T03:38:46;-0.70;99.90
13310;DHT22;6723;48.256;16.402;2023-12-20T03:41:12;-0.60;99.90
13310;DHT22;6723;48.256;16.402;2023-12-20T03:43:39;-0.50;99.90
13310;DHT22;6723;48.256;16.402;2023-12-20T03:46:04;-0.60;99.90
13310;DHT22;6723;48.256;16.402;2023-12-20T03:48:33;-0.50;99.90
13310;DHT22;6723;48.256;16.402;2023-12-20T03:50:59;-0.60;99.90
13310;DHT22;6723;48.256;16.402;2023-12-20T03:53:25;-0.60;99.90
13310;DHT22;6723;48.256;16.402;2023-12-20T03:55:51;-0.50;99.90
13310;DHT22;6723;48.256;16.402;2023-12-20T03:58:17;-0.60;99.90
13310;DHT22;6723;48.256;16.402;2023-12-20T04:00:43;-0.80;99.90
13310;DHT22;6723;48.256;16.402;2023-12-20T04:03:08;-0.70;99.90
13310;DHT22;6723;48.256;16.402;2023-12-20T04:05:34;-0.60;99.90
13310;DHT22;6723;48.256;16.402;2023-12-20T04:08:01;-0.70;99.90
13310;DHT22;6723;48.256;16.402;2023-12-20T04:10:28;-0.70;99.90
13310;DHT22;6723;48.256;16.402;2023-12-20T04:12:53;-0.80;99.90
13310;DHT22;6723;48.256;16.402;2023-12-20T04:15:20;-0.70;99.90
13310;DHT22;6723;48.256;16.402;2023-12-20T04:17:46;-0.80;99.90
13310;DHT22;6723;48.256;16.402;2023-12-20T04:20:12;-0.90;99.90
13310;DHT22;6723;48.256;16.402;2023-12-20T04:22:38;-0.80;99.90
13310;DHT22;6723;48.256;16.402;2023-12-20T04:25:04;-0.80;99.90
13310;DHT22;6723;48.256;16.402;2023-12-20T04:27:30;-0.90;99.90
13310;DHT22;6723;48.256;16.402;2023-12-20T04:29:56;-0.80;99.90
13310;DHT22;6723;48.256;16.402;2023-12-20T04:32:22;-0.70;99.90
13310;DHT22;6723;48.256;16.402;2023-12-20T04:34:48;-0.60;99.90
13310;DHT22;6723;48.256;16.402;2023-12-20T04:37:14;-0.60;99.90
13310;DHT22;6723;48.256;16.402;2023-12-20T04:39:40;-0.50;99.90
13310;DHT22;6723;48.256;16.402;2023-12-20T04:42:07;-0.40;99.90
13310;DHT22;6723;48.256;16.402;2023-12-20T04:44:34;-0.50;99.90
13310;DHT22;6723;48.256;16.402;2023-12-20T04:47:06;-0.50;99.90
13310;DHT22;6723;48.256;16.402;2023-12-20T04:49:31;-0.50;99.90
13310;DHT22;6723;48.256;16.402;2023-12-20T04:51:57;-0.50;99.90
13310;DHT22;6723;48.256;16.402;2023-12-20T04:54:23;-0.40;99.90
13310;DHT22;6723;48.256;16.402;2023-12-20T04:56:49;-0.30;99.90
13310;DHT22;6723;48.256;16.402;2023-12-20T04:59:15;-0.10;99.90
13310;DHT22;6723;48.256;16.402;2023-12-20T05:01:41;-0.30;99.90
13310;DHT22;6723;48.256;16.402;2023-12-20T05:04:07;-0.30;99.90
13310;DHT22;6723;48.256;16.402;2023-12-20T05:06:33;-0.20;99.90
13310;DHT22;6723;48.256;16.402;2023-12-20T05:08:59;-0.20;99.90
13310;DHT22;6723;48.256;16.402;2023-12-20T05:11:24;-0.20;99.90
13310;DHT22;6723;48.256;16.402;2023-12-20T05:13:50;-0.10;99.90
13310;DHT22;6723;48.256;16.402;2023-12-20T05:16:16;-0.10;99.90
13310;DHT22;6723;48.256;16.402;2023-12-20T05:18:48;0.00;99.90
13310;DHT22;6723;48.256;16.402;2023-12-20T05:21:15;0.10;99.90
13310;DHT22;6723;48.256;16.402;2023-12-20T05:23:42;0.10;99.90
13310;DHT22;6723;48.256;16.402;2023-12-20T05:26:08;0.10;99.90
13310;DHT22;6723;48.256;16.402;2023-12-20T05:28:33;0.20;99.90
13310;DHT22;6723;48.256;16.402;2023-12-20T05:30:59;0.20;99.90
13310;DHT22;6723;48.256;16.402;2023-12-20T05:33:25;0.30;99.90
13310;DHT22;6723;48.256;16.402;2023-12-20T05:35:52;0.30;99.90
13310;DHT22;6723;48.256;16.402;2023-12-20T05:38:17;0.30;99.90
13310;DHT22;6723;48.256;16.402;2023-12-20T05:40:43;0.40;99.90
13310;DHT22;6723;48.256;16.402;2023-12-20T05:43:09;0.40;99.90
13310;DHT22;6723;48.256;16.402;2023-12-20T05:45:37;0.40;99.90
13310;DHT22;6723;48.256;16.402;2023-12-20T05:48:04;0.50;99.90
13310;DHT22;6723;48.256;16.402;2023-12-20T05:50:30;0.50;99.90
13310;DHT22;6723;48.256;16.402;2023-12-20T05:52:56;0.60;99.90
13310;DHT22;6723;48.256;16.402;2023-12-20T05:55:22;0.60;99.90
13310;DHT22;6723;48.256;16.402;2023-12-20T05:57:48;0.70;99.90
13310;DHT22;6723;48.256;16.402;2023-12-20T06:00:14;0.80;99.90
13310;DHT22;6723;48.256;16.402;2023-12-20T06:02:41;0.80;99.90
13310;DHT22;6723;48.256;16.402;2023-12-20T06:05:07;0.90;99.90
13310;DHT22;6723;48.256;16.402;2023-12-20T06:07:33;1.00;99.90
13310;DHT22;6723;48.256;16.402;2023-12-20T06:09:59;1.00;99.90
13310;DHT22;6723;48.256;16.402;2023-12-20T06:12:25;1.10;99.90
13310;DHT22;6723;48.256;16.402;2023-12-20T06:14:52;1.10;99.90
13310;DHT22;6723;48.256;16.402;2023-12-20T06:17:18;1.20;99.90
13310;DHT22;6723;48.256;16.402;2023-12-20T06:19:44;1.30;99.90
13310;DHT22;6723;48.256;16.402;2023-12-20T06:22:14;1.40;99.90
13310;DHT22;6723;48.256;16.402;2023-12-20T06:24:40;1.50;99.90
13310;DHT22;6723;48.256;16.402;2023-12-20T06:27:06;2.50;99.90
13310;DHT22;6723;48.256;16.402;2023-12-20T06:29:31;2.80;99.90
13310;DHT22;6723;48.256;16.402;2023-12-20T06:31:57;3.00;99.90
13310;DHT22;6723;48.256;16.402;2023-12-20T06:34:23;3.60;99.90
13310;DHT22;6723;48.256;16.402;2023-12-20T06:36:52;4.30;99.90
13310;DHT22;6723;48.256;16.402;2023-12-20T06:39:17;5.00;99.90
13310;DHT22;6723;48.256;16.402;2023-12-20T06:41:43;5.20;99.90
13310;DHT22;6723;48.256;16.402;2023-12-20T06:44:09;5.60;99.90
13310;DHT22;6723;48.256;16.402;2023-12-20T06:46:35;6.00;99.90
13310;DHT22;6723;48.256;16.402;2023-12-20T06:49:01;6.20;99.90
13310;DHT22;6723;48.256;16.402;2023-12-20T06:51:26;6.50;99.90
13310;DHT22;6723;48.256;16.402;2023-12-20T06:53:53;6.80;99.90
13310;DHT22;6723;48.256;16.402;2023-12-20T06:56:18;7.00;99.90
13310;DHT22;6723;48.256;16.402;2023-12-20T06:58:45;7.10;99.90
13310;DHT22;6723;48.256;16.402;2023-12-20T07:01:12;7.30;99.90
13310;DHT22;6723;48.256;16.402;2023-12-20T07:03:37;7.40;99.90
13310;DHT22;6723;48.256;16.402;2023-12-20T07:06:04;7.40;99.90
13310;DHT22;6723;48.256;16.402;2023-12-20T07:08:30;7.70;99.90
13310;DHT22;6723;48.256;16.402;2023-12-20T07:10:55;7.70;99.90
13310;DHT22;6723;48.256;16.402;2023-12-20T07:13:21;7.80;99.90
13310;DHT22;6723;48.256;16.402;2023-12-20T07:15:48;7.80;99.90
13310;DHT22;6723;48.256;16.402;2023-12-20T07:18:14;7.80;99.90
13310;DHT22;6723;48.256;16.402;2023-12-20T07:20:40;7.80;99.90
13310;DHT22;6723;48.256;16.402;2023-12-20T07:23:06;7.90;99.90
13310;DHT22;6723;48.256;16.402;2023-12-20T07:25:31;7.90;99.90
13310;DHT22;6723;48.256;16.402;2023-12-20T07:28:01;7.90;99.90
13310;DHT22;6723;48.256;16.402;2023-12-20T07:30:26;7.80;99.90
13310;DHT22;6723;48.256;16.402;2023-12-20T07:32:52;7.80;99.90
13310;DHT22;6723;48.256;16.402;2023-12-20T07:35:18;7.60;99.90
13310;DHT22;6723;48.256;16.402;2023-12-20T07:37:44;7.50;99.90
13310;DHT22;6723;48.256;16.402;2023-12-20T07:40:10;7.40;99.90
13310;DHT22;6723;48.256;16.402;2023-12-20T07:42:36;7.40;99.90
13310;DHT22;6723;48.256;16.402;2023-12-20T07:45:02;7.30;99.90
13310;DHT22;6723;48.256;16.402;2023-12-20T07:47:28;7.30;99.90
13310;DHT22;6723;48.256;16.402;2023-12-20T07:49:54;7.20;99.90
13310;DHT22;6723;48.256;16.402;2023-12-20T07:52:20;7.20;99.90
13310;DHT22;6723;48.256;16.402;2023-12-20T07:54:48;7.20;99.90
13310;DHT22;6723;48.256;16.402;2023-12-20T07:57:13;7.00;99.90
13310;DHT22;6723;48.256;16.402;2023-12-20T07:59:39;7.00;99.90
13310;DHT22;6723;48.256;16.402;2023-12-20T08:02:05;7.00;99.90
13310;DHT22;6723;48.256;16.402;2023-12-20T08:04:32;6.90;99.90
13310;DHT22;6723;48.256;16.402;2023-12-20T08:06:58;7.00;99.90
13310;DHT22;6723;48.256;16.402;2023-12-20T08:09:25;7.10;99.90
13310;DHT22;6723;48.256;16.402;2023-12-20T08:11:51;7.30;99.90
13310;DHT22;6723;48.256;16.402;2023-12-20T08:14:17;7.40;99.90
13310;DHT22;6723;48.256;16.402;2023-12-20T08:16:43;7.50;99.90
13310;DHT22;6723;48.256;16.402;2023-12-20T08:19:09;7.70;99.90
13310;DHT22;6723;48.256;16.402;2023-12-20T08:21:35;7.70;99.90
13310;DHT22;6723;48.256;16.402;2023-12-20T08:24:01;7.80;99.90
13310;DHT22;6723;48.256;16.402;2023-12-20T08:26:27;7.90;99.90
13310;DHT22;6723;48.256;16.402;2023-12-20T08:28:52;7.90;99.90
13310;DHT22;6723;48.256;16.402;2023-12-20T08:31:19;7.90;99.90
13310;DHT22;6723;48.256;16.402;2023-12-20T08:33:46;7.80;99.90
13310;DHT22;6723;48.256;16.402;2023-12-20T08:36:12;7.80;99.90
13310;DHT22;6723;48.256;16.402;2023-12-20T08:38:38;7.90;99.90
13310;DHT22;6723;48.256;16.402;2023-12-20T08:41:05;7.90;99.90
13310;DHT22;6723;48.256;16.402;2023-12-20T08:43:31;7.80;99.90
13310;DHT22;6723;48.256;16.402;2023-12-20T08:45:57;7.90;99.90
13310;DHT22;6723;48.256;16.402;2023-12-20T08:48:23;7.90;99.90
13310;DHT22;6723;48.256;16.402;2023-12-20T08:50:49;7.90;99.90
13310;DHT22;6723;48.256;16.402;2023-12-20T08:53:16;7.90;99.90
13310;DHT22;6723;48.256;16.402;2023-12-20T08:55:42;7.90;99.90
13310;DHT22;6723;48.256;16.402;2023-12-20T08:58:08;7.80;99.90
13310;DHT22;6723;48.256;16.402;2023-12-20T09:00:34;7.80;99.90
13310;DHT22;6723;48.256;16.402;2023-12-20T09:03:01;7.70;99.90
13310;DHT22;6723;48.256;16.402;2023-12-20T09:05:27;7.70;99.90
13310;DHT22;6723;48.256;16.402;2023-12-20T09:07:54;7.70;99.90
13310;DHT22;6723;48.256;16.402;2023-12-20T09:10:19;7.60;99.90
13310;DHT22;6723;48.256;16.402;2023-12-20T09:12:51;7.60;99.90
13310;DHT22;6723;48.256;16.402;2023-12-20T09:15:24;7.50;99.90
13310;DHT22;6723;48.256;16.402;2023-12-20T09:17:50;7.50;99.90
13310;DHT22;6723;48.256;16.402;2023-12-20T09:20:16;7.50;99.90
13310;DHT22;6723;48.256;16.402;2023-12-20T09:22:42;7.40;99.90
13310;DHT22;6723;48.256;16.402;2023-12-20T09:25:10;7.40;99.90
13310;DHT22;6723;48.256;16.402;2023-12-20T09:27:37;7.40;99.90
13310;DHT22;6723;48.256;16.402;2023-12-20T09:30:03;7.20;99.90
13310;DHT22;6723;48.256;16.402;2023-12-20T09:32:31;7.00;99.90
13310;DHT22;6723;48.256;16.402;2023-12-20T09:34:56;6.90;99.90
13310;DHT22;6723;48.256;16.402;2023-12-20T09:37:25;6.80;99.90
13310;DHT22;6723;48.256;16.402;2023-12-20T09:39:51;6.70;99.90
13310;DHT22;6723;48.256;16.402;2023-12-20T09:43:03;6.60;99.90
13310;DHT22;6723;48.256;16.402;2023-12-20T09:45:11;6.70;99.90
13310;DHT22;6723;48.256;16.402;2023-12-20T09:47:37;6.60;99.90
13310;DHT22;6723;48.256;16.402;2023-12-20T09:50:03;6.60;99.90
13310;DHT22;6723;48.256;16.402;2023-12-20T09:52:29;6.60;99.90
13310;DHT22;6723;48.256;16.402;2023-12-20T09:54:55;6.50;99.90
13310;DHT22;6723;48.256;16.402;2023-12-20T09:57:22;6.50;99.90
13310;DHT22;6723;48.256;16.402;2023-12-20T09:59:48;6.50;99.90
13310;DHT22;6723;48.256;16.402;2023-12-20T10:02:14;6.40;99.90
13310;DHT22;6723;48.256;16.402;2023-12-20T10:04:47;6.30;99.90
13310;DHT22;6723;48.256;16.402;2023-12-20T10:07:13;6.30;99.90
13310;DHT22;6723;48.256;16.402;2023-12-20T10:09:39;6.30;99.90
13310;DHT22;6723;48.256;16.402;2023-12-20T10:12:06;6.30;99.90
13310;DHT22;6723;48.256;16.402;2023-12-20T10:14:32;6.40;99.90
13310;DHT22;6723;48.256;16.402;2023-12-20T10:17:05;6.40;99.90
13310;DHT22;6723;48.256;16.402;2023-12-20T10:19:32;6.40;99.90
13310;DHT22;6723;48.256;16.402;2023-12-20T10:22:03;6.40;99.90
13310;DHT22;6723;48.256;16.402;2023-12-20T10:24:29;6.50;99.90
13310;DHT22;6723;48.256;16.402;2023-12-20T10:27:05;6.40;99.90
13310;DHT22;6723;48.256;16.402;2023-12-20T10:29:32;6.40;99.90
13310;DHT22;6723;48.256;16.402;2023-12-20T10:31:58;6.40;99.90
13310;DHT22;6723;48.256;16.402;2023-12-20T10:34:24;6.50;99.90
13310;DHT22;6723;48.256;16.402;2023-12-20T10:36:50;6.50;99.90
13310;DHT22;6723;48.256;16.402;2023-12-20T10:39:17;6.50;99.90
13310;DHT22;6723;48.256;16.402;2023-12-20T10:41:46;6.50;99.90
13310;DHT22;6723;48.256;16.402;2023-12-20T10:44:13;6.60;99.90
13310;DHT22;6723;48.256;16.402;2023-12-20T10:46:40;6.50;99.90
13310;DHT22;6723;48.256;16.402;2023-12-20T10:49:07;6.50;99.90
13310;DHT22;6723;48.256;16.402;2023-12-20T10:51:35;6.50;99.90
13310;DHT22;6723;48.256;16.402;2023-12-20T10:54:01;6.50;99.90
13310;DHT22;6723;48.256;16.402;2023-12-20T10:56:32;6.50;99.90
13310;DHT22;6723;48.256;16.402;2023-12-20T10:59:01;6.50;99.90
13310;DHT22;6723;48.256;16.402;2023-12-20T11:01:29;6.50;99.90
13310;DHT22;6723;48.256;16.402;2023-12-20T11:03:55;6.50;99.90
13310;DHT22;6723;48.256;16.402;2023-12-20T11:06:47;6.50;99.90
13310;DHT22;6723;48.256;16.402;2023-12-20T11:09:24;6.60;99.90
13310;DHT22;6723;48.256;16.402;2023-12-20T11:17:10;6.70;99.90
13310;DHT22;6723;48.256;16.402;2023-12-20T11:22:22;6.70;99.90
13310;DHT22;6723;48.256;16.402;2023-12-20T11:24:49;6.80;99.90
13310;DHT22;6723;48.256;16.402;2023-12-20T11:27:15;6.80;99.90
13310;DHT22;6723;48.256;16.402;2023-12-20T11:29:42;6.80;99.90
13310;DHT22;6723;48.256;16.402;2023-12-20T11:37:36;6.80;99.90
13310;DHT22;6723;48.256;16.402;2023-12-20T11:40:05;6.90;99.90
13310;DHT22;6723;48.256;16.402;2023-12-20T11:42:39;6.80;99.90
13310;DHT22;6723;48.256;16.402;2023-12-20T11:45:10;6.90;99.90
13310;DHT22;6723;48.256;16.402;2023-12-20T11:47:36;6.90;99.90
13310;DHT22;6723;48.256;16.402;2023-12-20T11:50:02;7.00;99.90
13310;DHT22;6723;48.256;16.402;2023-12-20T11:52:29;7.00;99.90
13310;DHT22;6723;48.256;16.402;2023-12-20T11:54:56;7.00;99.90
13310;DHT22;6723;48.256;16.402;2023-12-20T11:57:22;7.00;99.90
13310;DHT22;6723;48.256;16.402;2023-12-20T11:59:48;7.10;99.90
13310;DHT22;6723;48.256;16.402;2023-12-20T12:02:14;7.10;99.90
13310;DHT22;6723;48.256;16.402;2023-12-20T12:04:43;7.20;99.90
13310;DHT22;6723;48.256;16.402;2023-12-20T12:07:09;7.30;99.90
13310;DHT22;6723;48.256;16.402;2023-12-20T12:09:35;7.30;99.90
13310;DHT22;6723;48.256;16.402;2023-12-20T12:12:01;7.30;99.90
13310;DHT22;6723;48.256;16.402;2023-12-20T12:14:27;7.40;99.90
13310;DHT22;6723;48.256;16.402;2023-12-20T12:16:53;7.40;99.90
13310;DHT22;6723;48.256;16.402;2023-12-20T12:19:21;7.50;99.90
13310;DHT22;6723;48.256;16.402;2023-12-20T12:21:48;7.50;99.90
13310;DHT22;6723;48.256;16.402;2023-12-20T12:24:13;7.60;99.90
13310;DHT22;6723;48.256;16.402;2023-12-20T12:26:39;7.70;99.90
13310;DHT22;6723;48.256;16.402;2023-12-20T12:29:07;7.60;99.90
13310;DHT22;6723;48.256;16.402;2023-12-20T12:31:33;7.70;99.90
13310;DHT22;6723;48.256;16.402;2023-12-20T12:33:59;7.70;99.90
13310;DHT22;6723;48.256;16.402;2023-12-20T12:36:25;7.70;99.90
13310;DHT22;6723;48.256;16.402;2023-12-20T12:38:50;7.70;99.90
13310;DHT22;6723;48.256;16.402;2023-12-20T12:41:16;7.70;99.90
13310;DHT22;6723;48.256;16.402;2023-12-20T12:43:42;7.80;99.90
13310;DHT22;6723;48.256;16.402;2023-12-20T12:46:08;7.70;99.90
13310;DHT22;6723;48.256;16.402;2023-12-20T12:48:34;7.70;99.90
13310;DHT22;6723;48.256;16.402;2023-12-20T12:50:59;7.80;99.90
13310;DHT22;6723;48.256;16.402;2023-12-20T12:53:26;7.70;99.90
13310;DHT22;6723;48.256;16.402;2023-12-20T12:55:54;7.70;99.90
13310;DHT22;6723;48.256;16.402;2023-12-20T12:58:20;7.70;99.90
13310;DHT22;6723;48.256;16.402;2023-12-20T13:00:46;7.80;99.90
13310;DHT22;6723;48.256;16.402;2023-12-20T13:03:12;7.80;99.90
13310;DHT22;6723;48.256;16.402;2023-12-20T13:05:38;7.80;99.90
13310;DHT22;6723;48.256;16.402;2023-12-20T13:08:04;7.70;99.90
13310;DHT22;6723;48.256;16.402;2023-12-20T13:10:30;7.70;99.90
13310;DHT22;6723;48.256;16.402;2023-12-20T13:12:56;7.70;99.90
13310;DHT22;6723;48.256;16.402;2023-12-20T13:15:22;7.70;99.90
13310;DHT22;6723;48.256;16.402;2023-12-20T13:17:47;7.70;99.90
13310;DHT22;6723;48.256;16.402;2023-12-20T13:20:13;7.70;99.90
13310;DHT22;6723;48.256;16.402;2023-12-20T13:22:39;7.70;99.90
13310;DHT22;6723;48.256;16.402;2023-12-20T13:25:05;7.70;99.90
13310;DHT22;6723;48.256;16.402;2023-12-20T13:27:31;7.70;99.90
13310;DHT22;6723;48.256;16.402;2023-12-20T13:29:58;7.70;99.90
13310;DHT22;6723;48.256;16.402;2023-12-20T13:32:24;7.70;99.90
13310;DHT22;6723;48.256;16.402;2023-12-20T13:34:50;7.70;99.90
13310;DHT22;6723;48.256;16.402;2023-12-20T13:37:16;7.70;99.90
13310;DHT22;6723;48.256;16.402;2023-12-20T13:39:42;7.60;99.90
13310;DHT22;6723;48.256;16.402;2023-12-20T13:42:07;7.70;99.90
13310;DHT22;6723;48.256;16.402;2023-12-20T13:44:33;7.60;99.90
13310;DHT22;6723;48.256;16.402;2023-12-20T13:46:59;7.60;99.90
13310;DHT22;6723;48.256;16.402;2023-12-20T13:49:26;7.70;99.90
13310;DHT22;6723;48.256;16.402;2023-12-20T13:51:54;7.60;99.90
13310;DHT22;6723;48.256;16.402;2023-12-20T13:54:23;7.50;99.90
13310;DHT22;6723;48.256;16.402;2023-12-20T13:56:49;7.50;99.90
13310;DHT22;6723;48.256;16.402;2023-12-20T13:59:15;7.50;99.90
13310;DHT22;6723;48.256;16.402;2023-12-20T14:01:41;7.60;99.90
13310;DHT22;6723;48.256;16.402;2023-12-20T14:04:07;7.70;99.90
13310;DHT22;6723;48.256;16.402;2023-12-20T14:06:33;7.70;99.90
13310;DHT22;6723;48.256;16.402;2023-12-20T14:08:59;7.70;99.90
13310;DHT22;6723;48.256;16.402;2023-12-20T14:11:28;7.60;99.90
13310;DHT22;6723;48.256;16.402;2023-12-20T14:13:54;7.50;99.90
13310;DHT22;6723;48.256;16.402;2023-12-20T14:16:26;7.40;99.90
13310;DHT22;6723;48.256;16.402;2023-12-20T14:18:52;7.40;99.90
13310;DHT22;6723;48.256;16.402;2023-12-20T14:21:23;7.40;99.90
13310;DHT22;6723;48.256;16.402;2023-12-20T14:23:49;7.30;99.90
13310;DHT22;6723;48.256;16.402;2023-12-20T14:26:15;7.30;99.90
13310;DHT22;6723;48.256;16.402;2023-12-20T14:28:42;7.20;99.90
13310;DHT22;6723;48.256;16.402;2023-12-20T14:31:07;7.20;99.90
13310;DHT22;6723;48.256;16.402;2023-12-20T14:33:36;7.20;99.90
13310;DHT22;6723;48.256;16.402;2023-12-20T14:36:07;7.10;99.90
13310;DHT22;6723;48.256;16.402;2023-12-20T14:38:32;7.00;99.90
13310;DHT22;6723;48.256;16.402;2023-12-20T14:40:58;7.00;99.90
13310;DHT22;6723;48.256;16.402;2023-12-20T14:43:25;7.00;99.90
13310;DHT22;6723;48.256;16.402;2023-12-20T14:45:52;7.00;99.90
13310;DHT22;6723;48.256;16.402;2023-12-20T14:48:20;7.00;99.90
13310;DHT22;6723;48.256;16.402;2023-12-20T14:50:47;7.00;99.90
13310;DHT22;6723;48.256;16.402;2023-12-20T14:53:14;7.00;99.90
13310;DHT22;6723;48.256;16.402;2023-12-20T14:55:44;7.00;99.90
13310;DHT22;6723;48.256;16.402;2023-12-20T14:58:10;7.00;99.90
13310;DHT22;6723;48.256;16.402;2023-12-20T15:00:36;7.00;99.90
13310;DHT22;6723;48.256;16.402;2023-12-20T15:03:02;7.00;99.90
13310;DHT22;6723;48.256;16.402;2023-12-20T15:05:30;6.90;99.90
13310;DHT22;6723;48.256;16.402;2023-12-20T15:07:56;7.00;99.90
13310;DHT22;6723;48.256;16.402;2023-12-20T15:10:22;7.00;99.90
13310;DHT22;6723;48.256;16.402;2023-12-20T15:12:48;6.90;99.90
13310;DHT22;6723;48.256;16.402;2023-12-20T15:15:13;6.90;99.90
13310;DHT22;6723;48.256;16.402;2023-12-20T15:17:40;6.80;99.90
13310;DHT22;6723;48.256;16.402;2023-12-20T15:20:06;6.80;99.90
13310;DHT22;6723;48.256;16.402;2023-12-20T15:22:31;6.80;99.90
13310;DHT22;6723;48.256;16.402;2023-12-20T15:24:59;6.80;99.90
13310;DHT22;6723;48.256;16.402;2023-12-20T15:27:27;6.80;99.90
13310;DHT22;6723;48.256;16.402;2023-12-20T15:29:53;6.80;99.90
13310;DHT22;6723;48.256;16.402;2023-12-20T15:32:19;6.80;99.90
13310;DHT22;6723;48.256;16.402;2023-12-20T15:34:45;6.80;99.90
13310;DHT22;6723;48.256;16.402;2023-12-20T15:37:12;6.80;99.90
13310;DHT22;6723;48.256;16.402;2023-12-20T15:39:38;6.80;99.90
13310;DHT22;6723;48.256;16.402;2023-12-20T15:42:04;6.80;99.90
13310;DHT22;6723;48.256;16.402;2023-12-20T15:44:29;6.80;99.90
13310;DHT22;6723;48.256;16.402;2023-12-20T15:46:55;6.80;99.90
13310;DHT22;6723;48.256;16.402;2023-12-20T15:49:21;6.80;99.90
13310;DHT22;6723;48.256;16.402;2023-12-20T15:51:47;6.90;99.90